Portada
METAR-TAF:

METAR-TAF

Aeroports :

Aeroport de Can Tho

Cần Thơ, Vietnam

latitud: 10-05-07N, longitud: 105-42-43E, altitud: 3 m

Observació

L'informe es va fer fa 12 minuts, a les 04:30 UTC
Vent 3 kt amb direcció variable
Temperatura 30°C
Humitat 66%
Pressió 1012 hPa
Visibilitat 10 km o més
Cel ennuvolat a una alçada de 1500 ft

METAR: VVCT 210430Z VRB03KT 9999 BKN015 30/23 Q1012 NOSIG

Hora: 11:42 (04:42 UTC)

Pronòstic

L'informe es va fer fa 5 hores i 42 minuts, a les 23:00 UTC
Pronòstic vàlid del 21 a les 00 UTC al 21 a les 24 UTC
Vent 5 kt del Est/Nord-Est
Visibilitat 10 km o més
Núvols disperses a una alçada de 1500 ft
Núvols disperses a una alçada de 4000 ft

TAF: VVCT 202300Z 2100/2124 07005KT 9999 SCT015 SCT040

Observacions i pronòstics meteorològics de més de 4000 aeroports (METAR i TAF).

Les estacions disponibles són els punts grocs i vermells al mapa.

Posi el ratolí al punt desitjat per veure el nom de l'estació.

Feu clic per veure les observacions i els pronòstics meteorològics.

Per canviar el mapa: feu clic els botons verds amb una creu de color negre per apropar; al botó verd amb un guió per allunyar la imatge; o en les fletxes verdes per a mapes adjacents.


METAR-TAF: